Terminal Aerodrome Forecast
Issued by NWS

Home | Current Version | Previous Version | Text Only | Print | Product List | Glossary Off
Versions: 1 2 3 4 5 6 7 8 9 10 11 12 13 14 15 16 17 18

095
FTUS43 KGRB 300520
TAFATW
TAF
KATW 300520Z 3006/3106 06006KT P6SM BKN060 BKN090
     FM301000 04006KT P6SM SCT060 SCT090
     FM301600 05009KT P6SM FEW050
     FM310300 VRB03KT P6SM BKN050=

USA.gov is the U.S. government's official web portal to all federal, state and local government web resources and services.